RYR11LR LGAV-LICC
Flight info
| Callsign | RYR11LR |
|---|---|
| Flight time | 1h 15m |
| Altitude | 38000 |
| Route | KOR N604 RILIN/N0438F360 UN604 RUTOM/N0436F370 DCT SODMO/N0342F190 Q72 PIMOR |
| Aircraft | B738/M-SDE2E3FGHIRWXY/LB1 |
Departure
| Time | 2026-05-06 08:51 |
|---|---|
| Airport | Athens Eleftherios Venizelos International Airport (LGAV) |
Arrival
| Time | 2026-05-06 10:06 |
|---|---|
| Airport | Catania-Fontanarossa Airport (LICC) |
| Time | Latitude | Longitude | Altitude | Speed | Heading |
|---|---|---|---|---|---|
| 2026-05-06 08:32 | 37.93085 | 23.94463 | 316 ft | 0 kts | 217° |
| 2026-05-06 08:41 | 37.93089 | 23.94467 | 316 ft | 4 kts | 216° |
| 2026-05-06 08:41 | 37.93112 | 23.94486 | 316 ft | 4 kts | 207° |
| 2026-05-06 08:41 | 37.93136 | 23.94498 | 316 ft | 4 kts | 187° |
| 2026-05-06 08:42 | 37.93159 | 23.94494 | 316 ft | 3 kts | 134° |
| 2026-05-06 08:42 | 37.93162 | 23.94490 | 316 ft | 0 kts | 127° |
| 2026-05-06 08:44 | 37.93144 | 23.94521 | 316 ft | 12 kts | 127° |
| 2026-05-06 08:44 | 37.93062 | 23.94576 | 316 ft | 16 kts | 216° |
| 2026-05-06 08:44 | 37.92969 | 23.94493 | 316 ft | 18 kts | 215° |
| 2026-05-06 08:44 | 37.92853 | 23.94384 | 316 ft | 22 kts | 217° |
| 2026-05-06 08:45 | 37.92735 | 23.94270 | 316 ft | 21 kts | 218° |
| 2026-05-06 08:45 | 37.92622 | 23.94161 | 316 ft | 20 kts | 217° |
| 2026-05-06 08:45 | 37.92512 | 23.94065 | 316 ft | 19 kts | 183° |
| 2026-05-06 08:45 | 37.92422 | 23.94176 | 316 ft | 18 kts | 118° |
| 2026-05-06 08:46 | 37.92411 | 23.94225 | 316 ft | 0 kts | 93° |
| 2026-05-06 08:46 | 37.92410 | 23.94237 | 316 ft | 0 kts | 93° |
| 2026-05-06 08:46 | 37.92410 | 23.94238 | 316 ft | 0 kts | 93° |
| 2026-05-06 08:48 | 37.92410 | 23.94249 | 316 ft | 4 kts | 92° |
| 2026-05-06 08:48 | 37.92414 | 23.94320 | 316 ft | 12 kts | 86° |
| 2026-05-06 08:48 | 37.92427 | 23.94399 | 316 ft | 5 kts | 35° |
| 2026-05-06 08:48 | 37.92437 | 23.94409 | 316 ft | 0 kts | 37° |
| 2026-05-06 08:50 | 37.92439 | 23.94411 | 316 ft | 4 kts | 37° |
| 2026-05-06 08:50 | 37.92570 | 23.94534 | 316 ft | 56 kts | 37° |
| 2026-05-06 08:50 | 37.93087 | 23.95027 | 316 ft | 126 kts | 37° |
| 2026-05-06 08:50 | 37.93929 | 23.95821 | 519 ft | 166 kts | 36° |
| 2026-05-06 08:51 | 37.94863 | 23.96713 | 1364 ft | 166 kts | 36° |
| 2026-05-06 08:51 | 37.95798 | 23.97595 | 2214 ft | 170 kts | 36° |
| 2026-05-06 08:51 | 37.96804 | 23.98551 | 2698 ft | 194 kts | 36° |
| 2026-05-06 08:51 | 37.97963 | 23.99657 | 3043 ft | 222 kts | 36° |
| 2026-05-06 08:52 | 37.99252 | 24.00893 | 3411 ft | 246 kts | 36° |
| 2026-05-06 08:52 | 38.00620 | 24.02212 | 4245 ft | 247 kts | 36° |
| 2026-05-06 08:52 | 38.01998 | 24.03543 | 5042 ft | 253 kts | 36° |
| 2026-05-06 08:52 | 38.03434 | 24.04930 | 5919 ft | 257 kts | 36° |
| 2026-05-06 08:53 | 38.04947 | 24.06143 | 6756 ft | 264 kts | 20° |
| 2026-05-06 08:53 | 38.06758 | 24.06515 | 7469 ft | 272 kts | 356° |
| 2026-05-06 08:53 | 38.08573 | 24.05851 | 8326 ft | 276 kts | 332° |
| 2026-05-06 08:53 | 38.10037 | 24.04253 | 9188 ft | 282 kts | 308° |
| 2026-05-06 08:54 | 38.10883 | 24.01992 | 10060 ft | 288 kts | 287° |
| 2026-05-06 08:54 | 38.11153 | 23.99451 | 10894 ft | 295 kts | 274° |
| 2026-05-06 08:54 | 38.11224 | 23.96776 | 11394 ft | 312 kts | 275° |
| 2026-05-06 08:54 | 38.11306 | 23.93933 | 11761 ft | 332 kts | 274° |
| 2026-05-06 08:55 | 38.11388 | 23.90958 | 12353 ft | 342 kts | 274° |
| 2026-05-06 08:55 | 38.11470 | 23.87928 | 13185 ft | 344 kts | 274° |
| 2026-05-06 08:55 | 38.11551 | 23.84887 | 14043 ft | 345 kts | 275° |
| 2026-05-06 08:55 | 38.11630 | 23.81838 | 14870 ft | 347 kts | 275° |
| 2026-05-06 08:56 | 38.11709 | 23.78762 | 15684 ft | 348 kts | 275° |
| 2026-05-06 08:56 | 38.11787 | 23.75683 | 16453 ft | 350 kts | 275° |
| 2026-05-06 08:56 | 38.11864 | 23.72590 | 17207 ft | 352 kts | 275° |
| 2026-05-06 08:56 | 38.11941 | 23.69471 | 17948 ft | 354 kts | 275° |
| 2026-05-06 08:57 | 38.12018 | 23.66293 | 18627 ft | 357 kts | 275° |
| 2026-05-06 08:57 | 38.12093 | 23.63175 | 19288 ft | 360 kts | 275° |
| 2026-05-06 08:57 | 38.12168 | 23.59982 | 19941 ft | 362 kts | 275° |
| 2026-05-06 08:57 | 38.12253 | 23.56733 | 20601 ft | 364 kts | 276° |
| 2026-05-06 08:58 | 38.12356 | 23.53506 | 21202 ft | 367 kts | 276° |
| 2026-05-06 08:58 | 38.12452 | 23.50312 | 21805 ft | 369 kts | 276° |
| 2026-05-06 08:58 | 38.12546 | 23.46988 | 22390 ft | 372 kts | 276° |
| 2026-05-06 08:58 | 38.12634 | 23.43721 | 22942 ft | 375 kts | 276° |
| 2026-05-06 08:59 | 38.12721 | 23.40375 | 23498 ft | 377 kts | 276° |
| 2026-05-06 08:59 | 38.12778 | 23.38119 | 23866 ft | 379 kts | 276° |
| 2026-05-06 08:59 | 38.12860 | 23.34812 | 24402 ft | 380 kts | 276° |
| 2026-05-06 08:59 | 38.12942 | 23.31442 | 24926 ft | 382 kts | 276° |
| 2026-05-06 09:00 | 38.13022 | 23.28057 | 25414 ft | 385 kts | 276° |
| 2026-05-06 09:00 | 38.13101 | 23.24657 | 25883 ft | 387 kts | 276° |
| 2026-05-06 09:00 | 38.13180 | 23.21230 | 26360 ft | 389 kts | 276° |
| 2026-05-06 09:00 | 38.13258 | 23.17781 | 26826 ft | 391 kts | 276° |
| 2026-05-06 09:01 | 38.13335 | 23.14321 | 27264 ft | 393 kts | 276° |
| 2026-05-06 09:01 | 38.13411 | 23.10845 | 27696 ft | 395 kts | 276° |
| 2026-05-06 09:01 | 38.13487 | 23.07354 | 28099 ft | 397 kts | 276° |
| 2026-05-06 09:01 | 38.13561 | 23.03840 | 28496 ft | 399 kts | 276° |
| 2026-05-06 09:02 | 38.13636 | 23.00310 | 28881 ft | 401 kts | 276° |
| 2026-05-06 09:02 | 38.13709 | 22.96766 | 29252 ft | 403 kts | 276° |
| 2026-05-06 09:02 | 38.13782 | 22.93207 | 29621 ft | 404 kts | 276° |
| 2026-05-06 09:02 | 38.13854 | 22.89627 | 29966 ft | 406 kts | 276° |
| 2026-05-06 09:03 | 38.13925 | 22.86032 | 30294 ft | 408 kts | 276° |
| 2026-05-06 09:03 | 38.13996 | 22.82405 | 30585 ft | 411 kts | 276° |
| 2026-05-06 09:03 | 38.14065 | 22.78776 | 30850 ft | 414 kts | 276° |
| 2026-05-06 09:03 | 38.14134 | 22.75107 | 31229 ft | 414 kts | 276° |
| 2026-05-06 09:04 | 38.14202 | 22.71466 | 31660 ft | 412 kts | 276° |
| 2026-05-06 09:04 | 38.14269 | 22.67767 | 32024 ft | 412 kts | 276° |
| 2026-05-06 09:04 | 38.14334 | 22.64178 | 32406 ft | 412 kts | 276° |
| 2026-05-06 09:04 | 38.14398 | 22.60549 | 32781 ft | 411 kts | 276° |
| 2026-05-06 09:05 | 38.14461 | 22.56878 | 33170 ft | 410 kts | 276° |
| 2026-05-06 09:05 | 38.14523 | 22.53268 | 33520 ft | 410 kts | 276° |
| 2026-05-06 09:05 | 38.14583 | 22.49641 | 33874 ft | 409 kts | 276° |
| 2026-05-06 09:05 | 38.14642 | 22.46038 | 34233 ft | 408 kts | 276° |
| 2026-05-06 09:06 | 38.14701 | 22.42435 | 34568 ft | 407 kts | 276° |
| 2026-05-06 09:06 | 38.14757 | 22.38899 | 34932 ft | 406 kts | 276° |
| 2026-05-06 09:06 | 38.14812 | 22.35313 | 35239 ft | 406 kts | 276° |
| 2026-05-06 09:06 | 38.14867 | 22.31726 | 35535 ft | 406 kts | 276° |
| 2026-05-06 09:07 | 38.14920 | 22.28147 | 35880 ft | 404 kts | 276° |
| 2026-05-06 09:07 | 38.14972 | 22.24587 | 36220 ft | 403 kts | 276° |
| 2026-05-06 09:07 | 38.15023 | 22.21026 | 36490 ft | 403 kts | 276° |
| 2026-05-06 09:07 | 38.15077 | 22.17457 | 36679 ft | 406 kts | 275° |
| 2026-05-06 09:08 | 38.15135 | 22.13846 | 36729 ft | 411 kts | 274° |
| 2026-05-06 09:08 | 38.15181 | 22.10216 | 36960 ft | 412 kts | 273° |
| 2026-05-06 09:08 | 38.15224 | 22.06611 | 37301 ft | 409 kts | 273° |
| 2026-05-06 09:08 | 38.15268 | 22.03001 | 37570 ft | 409 kts | 273° |
| 2026-05-06 09:09 | 38.15311 | 21.99399 | 37822 ft | 409 kts | 273° |
| 2026-05-06 09:09 | 38.15355 | 21.95696 | 38081 ft | 409 kts | 273° |
| 2026-05-06 09:09 | 38.15398 | 21.92071 | 38123 ft | 412 kts | 273° |
| 2026-05-06 09:10 | 38.15481 | 21.84776 | 38134 ft | 413 kts | 273° |
| 2026-05-06 09:10 | 38.15602 | 21.77495 | 38138 ft | 411 kts | 273° |
| 2026-05-06 09:11 | 38.15680 | 21.70228 | 38139 ft | 411 kts | 272° |
| 2026-05-06 09:11 | 38.15742 | 21.62956 | 38140 ft | 411 kts | 272° |
| 2026-05-06 09:12 | 38.15799 | 21.55737 | 38141 ft | 411 kts | 272° |
| 2026-05-06 09:12 | 38.15855 | 21.48420 | 38142 ft | 412 kts | 272° |
| 2026-05-06 09:13 | 38.16176 | 21.41216 | 38142 ft | 411 kts | 279° |
| 2026-05-06 09:13 | 38.17106 | 21.34020 | 38142 ft | 410 kts | 281° |
| 2026-05-06 09:14 | 38.18068 | 21.26872 | 38141 ft | 410 kts | 281° |
| 2026-05-06 09:14 | 38.19016 | 21.19772 | 38141 ft | 410 kts | 281° |
| 2026-05-06 09:15 | 38.19967 | 21.12626 | 38141 ft | 411 kts | 280° |
| 2026-05-06 09:15 | 38.20922 | 21.05412 | 38141 ft | 411 kts | 280° |
| 2026-05-06 09:16 | 38.21878 | 20.98264 | 38140 ft | 410 kts | 281° |
| 2026-05-06 09:16 | 38.22856 | 20.91169 | 38140 ft | 410 kts | 280° |
| 2026-05-06 09:17 | 38.23816 | 20.84010 | 38140 ft | 410 kts | 280° |
| 2026-05-06 09:17 | 38.24762 | 20.76853 | 38141 ft | 410 kts | 280° |
| 2026-05-06 09:18 | 38.25709 | 20.69630 | 38141 ft | 411 kts | 279° |
| 2026-05-06 09:18 | 38.26660 | 20.62517 | 38142 ft | 411 kts | 280° |
| 2026-05-06 09:19 | 38.27611 | 20.55285 | 38141 ft | 411 kts | 279° |
| 2026-05-06 09:19 | 38.28528 | 20.48111 | 38141 ft | 411 kts | 279° |
| 2026-05-06 09:20 | 38.29445 | 20.40875 | 38141 ft | 411 kts | 279° |
| 2026-05-06 09:20 | 38.30354 | 20.33683 | 38141 ft | 411 kts | 279° |
| 2026-05-06 09:21 | 38.31262 | 20.26498 | 38140 ft | 411 kts | 279° |
| 2026-05-06 09:21 | 38.32357 | 20.19348 | 38140 ft | 411 kts | 282° |
| 2026-05-06 09:22 | 38.33572 | 20.12241 | 38138 ft | 411 kts | 282° |
| 2026-05-06 09:22 | 38.34763 | 20.05112 | 38139 ft | 411 kts | 282° |
| 2026-05-06 09:23 | 38.35940 | 19.97984 | 38138 ft | 411 kts | 281° |
| 2026-05-06 09:23 | 38.37112 | 19.90836 | 38137 ft | 412 kts | 281° |
| 2026-05-06 09:24 | 38.38280 | 19.83680 | 38138 ft | 412 kts | 281° |
| 2026-05-06 09:24 | 38.39490 | 19.76535 | 38137 ft | 412 kts | 282° |
| 2026-05-06 09:25 | 38.40679 | 19.69392 | 38136 ft | 412 kts | 281° |
| 2026-05-06 09:25 | 38.41845 | 19.62279 | 38135 ft | 412 kts | 281° |
| 2026-05-06 09:26 | 38.43009 | 19.55128 | 38134 ft | 412 kts | 281° |
| 2026-05-06 09:26 | 38.44168 | 19.47962 | 38125 ft | 412 kts | 281° |
| 2026-05-06 09:27 | 38.45322 | 19.40799 | 38121 ft | 412 kts | 281° |
| 2026-05-06 09:27 | 38.46505 | 19.33633 | 38120 ft | 413 kts | 281° |
| 2026-05-06 09:28 | 38.47652 | 19.26447 | 38120 ft | 413 kts | 281° |
| 2026-05-06 09:28 | 38.48785 | 19.19253 | 38117 ft | 413 kts | 281° |
| 2026-05-06 09:29 | 38.49844 | 19.12497 | 38115 ft | 413 kts | 281° |
| 2026-05-06 09:29 | 38.50956 | 19.05306 | 38111 ft | 413 kts | 277° |
| 2026-05-06 09:29 | 38.50991 | 19.01643 | 38110 ft | 414 kts | 262° |
| 2026-05-06 09:30 | 38.50212 | 18.98108 | 38116 ft | 416 kts | 247° |
| 2026-05-06 09:30 | 38.47354 | 18.91667 | 38112 ft | 418 kts | 239° |
| 2026-05-06 09:31 | 38.44136 | 18.85487 | 38109 ft | 418 kts | 238° |
| 2026-05-06 09:31 | 38.40887 | 18.79330 | 38108 ft | 419 kts | 238° |
| 2026-05-06 09:32 | 38.37629 | 18.73177 | 38107 ft | 419 kts | 238° |
| 2026-05-06 09:32 | 38.34366 | 18.67030 | 38105 ft | 418 kts | 238° |
| 2026-05-06 09:33 | 38.31128 | 18.60886 | 38104 ft | 419 kts | 238° |
| 2026-05-06 09:33 | 38.27879 | 18.54704 | 38103 ft | 419 kts | 238° |
| 2026-05-06 09:34 | 38.24625 | 18.48559 | 38101 ft | 419 kts | 237° |
| 2026-05-06 09:34 | 38.21352 | 18.42404 | 38099 ft | 420 kts | 237° |
| 2026-05-06 09:35 | 38.18081 | 18.36269 | 38099 ft | 419 kts | 237° |
| 2026-05-06 09:35 | 38.15354 | 18.31164 | 38098 ft | 420 kts | 237° |
| 2026-05-06 09:36 | 38.12069 | 18.25028 | 38094 ft | 420 kts | 237° |
| 2026-05-06 09:36 | 38.08780 | 18.18896 | 38092 ft | 420 kts | 237° |
| 2026-05-06 09:37 | 38.05488 | 18.12769 | 38098 ft | 420 kts | 237° |
| 2026-05-06 09:37 | 38.02192 | 18.06647 | 38092 ft | 420 kts | 237° |
| 2026-05-06 09:38 | 37.98895 | 18.00534 | 38092 ft | 420 kts | 237° |
| 2026-05-06 09:38 | 37.95593 | 17.94422 | 38092 ft | 420 kts | 237° |
| 2026-05-06 09:39 | 37.92290 | 17.88320 | 38091 ft | 420 kts | 237° |
| 2026-05-06 09:39 | 37.89003 | 17.82200 | 38091 ft | 420 kts | 237° |
| 2026-05-06 09:40 | 37.85694 | 17.76102 | 38091 ft | 420 kts | 237° |
| 2026-05-06 09:40 | 37.80710 | 17.66978 | 38090 ft | 420 kts | 237° |
| 2026-05-06 09:41 | 37.77382 | 17.60899 | 38086 ft | 421 kts | 237° |
| 2026-05-06 09:41 | 37.74277 | 17.54662 | 38084 ft | 419 kts | 246° |
| 2026-05-06 09:42 | 37.72678 | 17.47611 | 38086 ft | 419 kts | 260° |
| 2026-05-06 09:42 | 37.71868 | 17.40330 | 38085 ft | 418 kts | 263° |
| 2026-05-06 09:43 | 37.71171 | 17.32994 | 38085 ft | 417 kts | 263° |
| 2026-05-06 09:43 | 37.70488 | 17.25771 | 38085 ft | 417 kts | 263° |
| 2026-05-06 09:44 | 37.69796 | 17.18470 | 38084 ft | 416 kts | 263° |
| 2026-05-06 09:44 | 37.69109 | 17.11248 | 38084 ft | 417 kts | 263° |
| 2026-05-06 09:45 | 37.68457 | 17.03941 | 38081 ft | 417 kts | 263° |
| 2026-05-06 09:45 | 37.67790 | 16.96666 | 38071 ft | 416 kts | 263° |
| 2026-05-06 09:46 | 37.67107 | 16.89409 | 38070 ft | 417 kts | 263° |
| 2026-05-06 09:46 | 37.66415 | 16.82152 | 38070 ft | 417 kts | 263° |
| 2026-05-06 09:47 | 37.65721 | 16.74945 | 38068 ft | 413 kts | 263° |
| 2026-05-06 09:47 | 37.65040 | 16.67920 | 38064 ft | 394 kts | 263° |
| 2026-05-06 09:48 | 37.64375 | 16.61099 | 38067 ft | 387 kts | 263° |
| 2026-05-06 09:48 | 37.63748 | 16.54395 | 38068 ft | 388 kts | 263° |
| 2026-05-06 09:49 | 37.63082 | 16.47604 | 38067 ft | 387 kts | 262° |
| 2026-05-06 09:49 | 37.62405 | 16.40873 | 38066 ft | 387 kts | 262° |
| 2026-05-06 09:50 | 37.61726 | 16.34188 | 38066 ft | 387 kts | 262° |
| 2026-05-06 09:50 | 37.61041 | 16.27461 | 38065 ft | 387 kts | 262° |
| 2026-05-06 09:51 | 37.60356 | 16.20737 | 38062 ft | 387 kts | 262° |
| 2026-05-06 09:51 | 37.59734 | 16.14006 | 38061 ft | 387 kts | 264° |
| 2026-05-06 09:52 | 37.59212 | 16.07261 | 38050 ft | 387 kts | 263° |
| 2026-05-06 09:52 | 37.58935 | 16.03954 | 37551 ft | 375 kts | 263° |
| 2026-05-06 09:52 | 37.58654 | 16.00653 | 36270 ft | 384 kts | 263° |
| 2026-05-06 09:53 | 37.58361 | 15.97244 | 34760 ft | 397 kts | 263° |
| 2026-05-06 09:53 | 37.58059 | 15.93742 | 33280 ft | 407 kts | 263° |
| 2026-05-06 09:53 | 37.57750 | 15.90160 | 31836 ft | 413 kts | 263° |
| 2026-05-06 09:53 | 37.57455 | 15.86543 | 30427 ft | 417 kts | 265° |
| 2026-05-06 09:54 | 37.57341 | 15.82877 | 29041 ft | 419 kts | 269° |
| 2026-05-06 09:54 | 37.57378 | 15.79210 | 27689 ft | 418 kts | 271° |
| 2026-05-06 09:54 | 37.57480 | 15.75560 | 26360 ft | 416 kts | 271° |
| 2026-05-06 09:54 | 37.57551 | 15.71932 | 25050 ft | 412 kts | 270° |
| 2026-05-06 09:55 | 37.57596 | 15.68336 | 23759 ft | 408 kts | 270° |
| 2026-05-06 09:55 | 37.57629 | 15.64790 | 22491 ft | 402 kts | 270° |
| 2026-05-06 09:55 | 37.57656 | 15.61291 | 21243 ft | 396 kts | 270° |
| 2026-05-06 09:55 | 37.57680 | 15.57856 | 20016 ft | 389 kts | 270° |
| 2026-05-06 09:56 | 37.57703 | 15.54470 | 18799 ft | 382 kts | 270° |
| 2026-05-06 09:56 | 37.57725 | 15.51159 | 17610 ft | 374 kts | 270° |
| 2026-05-06 09:56 | 37.57745 | 15.47916 | 16440 ft | 367 kts | 270° |
| 2026-05-06 09:56 | 37.57767 | 15.44732 | 15284 ft | 359 kts | 270° |
| 2026-05-06 09:57 | 37.57787 | 15.41609 | 14145 ft | 352 kts | 270° |
| 2026-05-06 09:57 | 37.57804 | 15.38552 | 13026 ft | 345 kts | 270° |
| 2026-05-06 09:57 | 37.57762 | 15.35560 | 11925 ft | 338 kts | 269° |
| 2026-05-06 09:57 | 37.57707 | 15.32658 | 10853 ft | 333 kts | 269° |
| 2026-05-06 09:58 | 37.57659 | 15.29766 | 9783 ft | 330 kts | 268° |
| 2026-05-06 09:58 | 37.57612 | 15.26846 | 8711 ft | 328 kts | 268° |
| 2026-05-06 09:58 | 37.57569 | 15.24011 | 7682 ft | 326 kts | 268° |
| 2026-05-06 09:58 | 37.57525 | 15.21125 | 6646 ft | 324 kts | 268° |
| 2026-05-06 09:59 | 37.57484 | 15.18299 | 5639 ft | 321 kts | 268° |
| 2026-05-06 09:59 | 37.57444 | 15.15513 | 4969 ft | 312 kts | 268° |
| 2026-05-06 09:59 | 37.57417 | 15.12893 | 4708 ft | 287 kts | 268° |
| 2026-05-06 09:59 | 37.57396 | 15.10463 | 4447 ft | 267 kts | 268° |
| 2026-05-06 10:00 | 37.57380 | 15.08208 | 4193 ft | 250 kts | 268° |
| 2026-05-06 10:00 | 37.57367 | 15.06082 | 3936 ft | 236 kts | 268° |
| 2026-05-06 10:00 | 37.57358 | 15.04065 | 3674 ft | 225 kts | 268° |
| 2026-05-06 10:00 | 37.57351 | 15.02084 | 3427 ft | 226 kts | 268° |
| 2026-05-06 10:01 | 37.57342 | 15.00118 | 3176 ft | 223 kts | 268° |
| 2026-05-06 10:01 | 37.57335 | 14.98177 | 3003 ft | 220 kts | 268° |
| 2026-05-06 10:01 | 37.57308 | 14.96265 | 2978 ft | 217 kts | 263° |
| 2026-05-06 10:01 | 37.56975 | 14.94420 | 2985 ft | 216 kts | 251° |
| 2026-05-06 10:02 | 37.56366 | 14.92706 | 2969 ft | 214 kts | 232° |
| 2026-05-06 10:02 | 37.55314 | 14.91438 | 2983 ft | 213 kts | 211° |
| 2026-05-06 10:02 | 37.53899 | 14.90965 | 2824 ft | 213 kts | 178° |
| 2026-05-06 10:02 | 37.52468 | 14.91320 | 2672 ft | 213 kts | 165° |
| 2026-05-06 10:03 | 37.50995 | 14.91882 | 2489 ft | 212 kts | 163° |
| 2026-05-06 10:03 | 37.49605 | 14.92528 | 2242 ft | 213 kts | 156° |
| 2026-05-06 10:03 | 37.48262 | 14.93367 | 1989 ft | 212 kts | 153° |
| 2026-05-06 10:03 | 37.46965 | 14.94203 | 1742 ft | 211 kts | 153° |
| 2026-05-06 10:04 | 37.45814 | 14.95312 | 1513 ft | 205 kts | 124° |
| 2026-05-06 10:04 | 37.45535 | 14.96993 | 1344 ft | 198 kts | 82° |
| 2026-05-06 10:04 | 37.45879 | 14.98643 | 1131 ft | 193 kts | 79° |
| 2026-05-06 10:04 | 37.46116 | 15.00240 | 904 ft | 180 kts | 81° |
| 2026-05-06 10:05 | 37.46266 | 15.01734 | 647 ft | 166 kts | 84° |
| 2026-05-06 10:05 | 37.46382 | 15.03122 | 409 ft | 153 kts | 84° |
| 2026-05-06 10:05 | 37.46489 | 15.04394 | 243 ft | 140 kts | 84° |
| 2026-05-06 10:05 | 37.46591 | 15.05596 | 57 ft | 134 kts | 84° |
| 2026-05-06 10:06 | 37.46673 | 15.06581 | 47 ft | 82 kts | 84° |
| 2026-05-06 10:06 | 37.46715 | 15.06933 | 47 ft | 16 kts | 39° |
| 2026-05-06 10:06 | 37.46795 | 15.06909 | 47 ft | 16 kts | 340° |
| 2026-05-06 10:06 | 37.46853 | 15.06882 | 47 ft | 0 kts | 340° |
| 2026-05-06 10:08 | 37.46890 | 15.06865 | 47 ft | 10 kts | 340° |
| 2026-05-06 10:09 | 37.46936 | 15.06855 | 47 ft | 0 kts | 1° |